createdAt,value
2024-01-26T00:00:29.423Z,5.53
2024-01-26T00:02:56.807Z,5.68
2024-01-26T00:05:23.280Z,5.63
2024-01-26T00:07:49.887Z,6.28
2024-01-26T00:10:16.645Z,5.80
2024-01-26T00:12:43.648Z,4.97
2024-01-26T00:15:10.385Z,5.57
2024-01-26T00:17:36.983Z,5.95
2024-01-26T00:20:03.824Z,5.38
2024-01-26T00:22:30.311Z,6.00
2024-01-26T00:24:56.803Z,4.80
2024-01-26T00:27:23.365Z,4.30
2024-01-26T00:29:49.866Z,4.75
2024-01-26T00:32:16.357Z,4.25
2024-01-26T00:34:43.030Z,4.15
2024-01-26T00:37:09.720Z,4.30
2024-01-26T00:39:36.246Z,4.35
2024-01-26T00:42:02.774Z,4.07
2024-01-26T00:44:29.242Z,3.88
2024-01-26T00:46:55.710Z,3.80
2024-01-26T00:49:25.626Z,4.70
2024-01-26T00:51:57.418Z,3.90
2024-01-26T00:54:23.964Z,3.67
2024-01-26T00:56:50.463Z,4.07
2024-01-26T00:59:16.921Z,4.88
2024-01-26T01:01:43.609Z,3.33
2024-01-26T01:04:10.146Z,3.63
2024-01-26T01:06:36.656Z,3.58
2024-01-26T01:09:03.306Z,4.18
2024-01-26T01:11:29.849Z,3.53
2024-01-26T01:13:56.376Z,4.78
2024-01-26T01:16:22.839Z,3.55
2024-01-26T01:18:50.005Z,3.78
2024-01-26T01:21:16.668Z,3.20
2024-01-26T01:23:43.179Z,3.40
2024-01-26T01:26:09.670Z,2.92
2024-01-26T01:28:36.180Z,3.00
2024-01-26T01:31:02.639Z,3.22
2024-01-26T01:33:29.241Z,2.63
2024-01-26T01:35:55.861Z,3.63
2024-01-26T01:38:22.444Z,2.60
2024-01-26T01:40:48.982Z,3.88
2024-01-26T01:43:17.073Z,2.70
2024-01-26T01:45:43.587Z,2.75
2024-01-26T01:48:10.282Z,2.80
2024-01-26T01:50:36.881Z,3.00
2024-01-26T01:53:05.452Z,2.53
2024-01-26T01:55:32.941Z,2.67
2024-01-26T01:57:59.840Z,2.95
2024-01-26T02:00:26.397Z,3.53
2024-01-26T02:02:53.742Z,2.58
2024-01-26T02:05:20.467Z,2.40
2024-01-26T02:07:51.193Z,2.95
2024-01-26T02:10:19.105Z,3.58
2024-01-26T02:12:45.710Z,2.40
2024-01-26T02:15:12.585Z,2.83
2024-01-26T02:17:39.454Z,2.40
2024-01-26T02:20:07.120Z,2.55
2024-01-26T02:22:33.992Z,2.38
2024-01-26T02:25:00.602Z,2.30
2024-01-26T02:27:27.161Z,3.08
2024-01-26T02:29:53.682Z,2.47
2024-01-26T02:32:20.167Z,2.28
2024-01-26T02:34:46.796Z,2.92
2024-01-26T02:37:13.418Z,3.05
2024-01-26T02:39:39.901Z,2.13
2024-01-26T02:42:07.096Z,2.10
2024-01-26T02:44:34.526Z,2.15
2024-01-26T02:47:01.154Z,2.20
2024-01-26T02:49:29.175Z,2.08
2024-01-26T02:51:55.776Z,3.13
2024-01-26T02:54:24.114Z,1.98
2024-01-26T02:56:51.236Z,1.67
2024-01-26T02:59:17.780Z,2.00
2024-01-26T03:01:44.261Z,1.92
2024-01-26T03:04:10.832Z,1.98
2024-01-26T03:06:37.504Z,1.90
2024-01-26T03:09:04.150Z,1.92
2024-01-26T03:11:41.629Z,2.88
2024-01-26T03:14:08.441Z,2.42
2024-01-26T03:16:35.682Z,2.42
2024-01-26T03:19:02.936Z,1.95
2024-01-26T03:21:29.595Z,1.85
2024-01-26T03:23:56.168Z,2.25
2024-01-26T03:26:22.736Z,2.05
2024-01-26T03:28:50.178Z,2.92
2024-01-26T03:31:16.738Z,2.10
2024-01-26T03:33:45.478Z,2.00
2024-01-26T03:36:14.009Z,2.92
2024-01-26T03:38:40.682Z,2.72
2024-01-26T03:41:07.308Z,2.45
2024-01-26T03:43:33.823Z,2.28
2024-01-26T03:46:00.258Z,2.53
2024-01-26T03:48:26.800Z,3.10
2024-01-26T03:50:53.664Z,2.28
2024-01-26T03:53:20.184Z,2.17
2024-01-26T03:55:46.687Z,2.70
2024-01-26T03:58:13.210Z,2.47
2024-01-26T04:00:39.788Z,2.60
2024-01-26T04:03:06.352Z,2.30
2024-01-26T04:05:32.916Z,2.75
2024-01-26T04:07:59.442Z,2.67
2024-01-26T04:10:25.929Z,3.35
2024-01-26T04:12:52.407Z,2.83
2024-01-26T04:15:18.921Z,2.50
2024-01-26T04:17:45.518Z,3.00
2024-01-26T04:20:12.115Z,2.70
2024-01-26T04:22:38.653Z,4.05
2024-01-26T04:25:05.509Z,3.55
2024-01-26T04:27:32.049Z,3.15
2024-01-26T04:29:58.736Z,3.25
2024-01-26T04:32:25.502Z,3.30
2024-01-26T04:34:52.066Z,3.47
2024-01-26T04:37:18.613Z,4.55
2024-01-26T04:39:45.114Z,3.13
2024-01-26T04:42:11.730Z,4.00
2024-01-26T04:44:38.346Z,5.13
2024-01-26T04:47:04.946Z,4.22
2024-01-26T04:49:31.421Z,4.95
2024-01-26T04:51:58.009Z,4.22
2024-01-26T04:54:24.495Z,4.82
2024-01-26T04:56:51.010Z,4.55
2024-01-26T04:59:17.512Z,7.25
2024-01-26T05:01:44.066Z,5.60
2024-01-26T05:04:10.729Z,4.68
2024-01-26T05:06:37.344Z,5.57
2024-01-26T05:09:04.083Z,6.57
2024-01-26T05:11:30.732Z,6.07
2024-01-26T05:13:57.197Z,5.35
2024-01-26T05:16:23.708Z,6.85
2024-01-26T05:18:50.353Z,7.38
2024-01-26T05:21:16.995Z,6.47
2024-01-26T05:23:43.639Z,6.75
2024-01-26T05:26:10.247Z,6.50
2024-01-26T05:28:37.123Z,6.72
2024-01-26T05:31:03.756Z,6.90
2024-01-26T05:33:30.377Z,9.15
2024-01-26T05:35:56.973Z,7.50
2024-01-26T05:38:23.506Z,7.18
2024-01-26T05:40:49.991Z,7.85
2024-01-26T05:43:16.463Z,6.75
2024-01-26T05:45:42.976Z,7.55
2024-01-26T05:48:09.617Z,7.38
2024-01-26T05:50:36.209Z,8.90
2024-01-26T05:53:02.677Z,7.25
2024-01-26T05:55:29.204Z,7.35
2024-01-26T05:57:55.642Z,8.65
2024-01-26T06:00:22.212Z,8.07
2024-01-26T06:02:48.793Z,9.90
2024-01-26T06:05:15.471Z,7.13
2024-01-26T06:07:41.944Z,7.45
2024-01-26T06:10:09.218Z,6.95
2024-01-26T06:12:35.681Z,9.43
2024-01-26T06:15:02.471Z,6.97
2024-01-26T06:17:29.056Z,7.55
2024-01-26T06:19:55.642Z,7.30
2024-01-26T06:22:22.197Z,9.73
2024-01-26T06:24:48.661Z,8.43
2024-01-26T06:27:15.279Z,7.45
2024-01-26T06:29:41.862Z,7.28
2024-01-26T06:32:08.413Z,7.03
2024-01-26T06:34:37.161Z,7.80
2024-01-26T06:37:03.944Z,9.18
2024-01-26T06:39:33.884Z,6.53
2024-01-26T06:42:00.423Z,7.60
2024-01-26T06:44:26.956Z,6.00
2024-01-26T06:46:53.407Z,6.45
2024-01-26T06:49:19.950Z,6.45
2024-01-26T06:51:46.497Z,6.45
2024-01-26T06:54:13.028Z,6.35
2024-01-26T06:56:39.568Z,6.68
2024-01-26T06:59:06.062Z,6.88
2024-01-26T07:01:32.607Z,5.43
2024-01-26T07:03:59.196Z,5.97
2024-01-26T07:06:25.972Z,5.80
2024-01-26T07:08:52.645Z,6.55
2024-01-26T07:11:19.170Z,4.90
2024-01-26T07:13:45.872Z,5.80
2024-01-26T07:16:12.372Z,5.07
2024-01-26T07:18:39.292Z,5.90
2024-01-26T07:21:09.509Z,5.20
2024-01-26T07:23:36.154Z,4.32
2024-01-26T07:26:02.671Z,4.40
2024-01-26T07:28:29.236Z,4.03
2024-01-26T07:30:55.737Z,4.55
2024-01-26T07:33:22.375Z,4.25
2024-01-26T07:35:49.305Z,5.65
2024-01-26T07:38:16.054Z,4.30
2024-01-26T07:40:42.640Z,4.20
2024-01-26T07:43:09.101Z,7.32
2024-01-26T07:45:35.621Z,10.10
2024-01-26T07:48:02.219Z,9.55
2024-01-26T07:50:28.766Z,9.38
2024-01-26T07:52:55.241Z,9.25
2024-01-26T07:55:21.709Z,9.55
2024-01-26T07:57:48.221Z,9.95
2024-01-26T08:00:15.172Z,10.02
2024-01-26T08:02:41.812Z,8.80
2024-01-26T08:05:08.788Z,8.65
2024-01-26T08:07:35.356Z,8.70
2024-01-26T08:10:02.239Z,8.38
2024-01-26T08:12:38.591Z,7.55
2024-01-26T08:15:11.578Z,7.47
2024-01-26T08:17:38.467Z,10.65
2024-01-26T08:20:05.810Z,9.00
2024-01-26T08:22:32.836Z,9.52
2024-01-26T08:25:00.005Z,9.05
2024-01-26T08:27:26.594Z,8.85
2024-01-26T08:29:53.358Z,11.60
2024-01-26T08:32:20.093Z,7.82
2024-01-26T08:34:46.820Z,9.80
2024-01-26T08:37:13.613Z,9.57
2024-01-26T08:39:43.890Z,11.05
2024-01-26T08:42:10.369Z,10.00
2024-01-26T08:44:36.939Z,8.15
2024-01-26T08:47:03.647Z,9.80
2024-01-26T08:49:30.252Z,8.88
2024-01-26T08:51:57.196Z,7.90
2024-01-26T08:54:23.669Z,9.10
2024-01-26T08:56:50.219Z,8.13
2024-01-26T08:59:16.735Z,6.72
2024-01-26T09:01:43.336Z,7.88
2024-01-26T09:04:12.288Z,4.90
2024-01-26T09:06:39.182Z,7.50
2024-01-26T09:09:05.738Z,6.20
2024-01-26T09:11:32.364Z,6.70
2024-01-26T09:13:58.909Z,6.72
2024-01-26T09:16:25.429Z,6.90
2024-01-26T09:18:52.121Z,7.82
2024-01-26T09:21:18.850Z,5.90
2024-01-26T09:23:45.434Z,6.05
2024-01-26T09:26:12.328Z,8.73
2024-01-26T09:28:40.332Z,6.90
2024-01-26T09:31:06.860Z,6.25
2024-01-26T09:33:33.967Z,6.80
2024-01-26T09:36:00.682Z,6.00
2024-01-26T09:38:27.225Z,6.38
2024-01-26T09:40:53.740Z,4.88
2024-01-26T09:43:20.240Z,6.32
2024-01-26T09:45:51.083Z,4.90
2024-01-26T09:48:19.610Z,4.97
2024-01-26T09:50:46.348Z,4.35
2024-01-26T09:53:15.919Z,5.03
2024-01-26T09:55:42.596Z,4.70
2024-01-26T09:58:09.124Z,5.32
2024-01-26T10:00:35.680Z,4.15
2024-01-26T10:03:02.359Z,4.78
2024-01-26T10:05:29.186Z,5.15
2024-01-26T10:07:55.731Z,4.68
2024-01-26T10:10:22.246Z,5.20
2024-01-26T10:12:48.899Z,3.47
2024-01-26T10:15:17.417Z,4.72
2024-01-26T10:17:45.175Z,4.55
2024-01-26T10:20:13.916Z,3.92
2024-01-26T10:22:41.086Z,4.57
2024-01-26T10:25:08.292Z,4.95
2024-01-26T10:27:38.016Z,3.22
2024-01-26T10:30:05.525Z,3.03
2024-01-26T10:32:33.292Z,4.03
2024-01-26T10:35:02.123Z,4.07
2024-01-26T10:37:30.410Z,3.65
2024-01-26T10:39:58.435Z,3.85
2024-01-26T10:42:27.553Z,4.72
2024-01-26T10:44:54.988Z,3.20
2024-01-26T10:47:22.487Z,4.40
2024-01-26T10:49:51.000Z,3.38
2024-01-26T10:52:20.057Z,2.88
2024-01-26T10:54:51.298Z,4.88
2024-01-26T10:57:19.772Z,3.75
2024-01-26T10:59:46.960Z,4.25
2024-01-26T11:02:16.418Z,4.13
2024-01-26T11:04:45.055Z,3.53
2024-01-26T11:07:11.893Z,5.60
2024-01-26T11:09:38.575Z,3.35
2024-01-26T11:12:23.286Z,5.22
2024-01-26T11:15:10.245Z,3.97
2024-01-26T11:17:53.916Z,3.90
2024-01-26T11:20:25.720Z,5.78
2024-01-26T11:23:02.101Z,6.05
2024-01-26T11:25:34.343Z,10.48
2024-01-26T11:28:01.585Z,12.43
2024-01-26T11:30:28.710Z,16.05
2024-01-26T11:32:55.796Z,14.30
2024-01-26T11:35:22.641Z,15.48
2024-01-26T11:37:52.207Z,16.33
2024-01-26T11:40:19.178Z,16.48
2024-01-26T11:42:45.714Z,17.58
2024-01-26T11:45:32.271Z,15.98
2024-01-26T11:47:59.778Z,16.42
2024-01-26T11:50:26.312Z,16.58
2024-01-26T11:52:52.945Z,17.77
2024-01-26T11:55:19.911Z,17.25
2024-01-26T11:57:46.425Z,16.88
2024-01-26T12:00:13.453Z,18.90
2024-01-26T12:02:40.082Z,17.58
2024-01-26T12:05:06.934Z,16.15
2024-01-26T12:07:33.751Z,14.10
2024-01-26T12:10:00.399Z,16.02
2024-01-26T12:12:27.253Z,15.02
2024-01-26T12:14:53.857Z,14.93
2024-01-26T12:17:20.435Z,16.35
2024-01-26T12:19:48.359Z,15.82
2024-01-26T12:22:14.968Z,11.75
2024-01-26T12:24:41.528Z,12.27
2024-01-26T12:27:08.212Z,12.23
2024-01-26T12:29:34.830Z,11.48
2024-01-26T12:32:05.542Z,10.10
2024-01-26T12:34:32.524Z,9.88
2024-01-26T12:36:59.621Z,10.40
2024-01-26T12:39:26.262Z,10.65
2024-01-26T12:41:53.559Z,7.70
2024-01-26T12:44:20.598Z,8.15
2024-01-26T12:46:47.155Z,6.65
2024-01-26T12:49:13.804Z,8.23
2024-01-26T12:51:40.599Z,11.07
2024-01-26T12:54:07.269Z,13.40
2024-01-26T12:56:33.766Z,10.23
2024-01-26T12:59:00.421Z,11.48
2024-01-26T13:01:27.009Z,12.55
2024-01-26T13:03:55.397Z,13.63
2024-01-26T13:06:22.255Z,16.75
2024-01-26T13:08:48.858Z,14.48
2024-01-26T13:11:15.450Z,15.57
2024-01-26T13:13:41.977Z,14.52
2024-01-26T13:16:08.984Z,14.93
2024-01-26T13:18:38.762Z,13.43
2024-01-26T13:21:07.148Z,14.90
2024-01-26T13:23:33.730Z,15.68
2024-01-26T13:26:00.377Z,14.30
2024-01-26T13:28:26.914Z,16.38
2024-01-26T13:30:53.502Z,14.18
2024-01-26T13:33:20.367Z,16.65
2024-01-26T13:35:46.974Z,16.05
2024-01-26T13:38:13.715Z,15.05
2024-01-26T13:40:40.392Z,16.38
2024-01-26T13:43:07.551Z,15.00
2024-01-26T13:45:34.481Z,13.05
2024-01-26T13:48:04.255Z,14.98
2024-01-26T13:50:37.642Z,14.50
2024-01-26T13:53:04.246Z,13.15
2024-01-26T13:55:30.793Z,12.23
2024-01-26T13:57:57.322Z,12.93
2024-01-26T14:00:23.980Z,14.52
2024-01-26T14:02:51.349Z,13.65
2024-01-26T14:05:18.107Z,13.75
2024-01-26T14:07:44.900Z,13.38
2024-01-26T14:10:11.441Z,15.88
2024-01-26T14:12:38.625Z,15.38
2024-01-26T14:15:05.545Z,14.20
2024-01-26T14:17:32.070Z,15.40
2024-01-26T14:19:58.562Z,15.50
2024-01-26T14:22:25.026Z,14.50
2024-01-26T14:24:51.503Z,15.48
2024-01-26T14:27:18.233Z,14.55
2024-01-26T14:29:44.861Z,12.05
2024-01-26T14:32:11.434Z,15.15
2024-01-26T14:34:37.948Z,13.30
2024-01-26T14:37:04.506Z,13.23
2024-01-26T14:39:31.160Z,13.65
2024-01-26T14:41:57.829Z,13.70
2024-01-26T14:44:24.362Z,14.18
2024-01-26T14:46:50.823Z,12.70
2024-01-26T14:49:17.514Z,12.52
2024-01-26T14:51:44.053Z,12.25
2024-01-26T14:54:10.610Z,12.73
2024-01-26T14:56:37.187Z,11.02
2024-01-26T14:59:03.953Z,12.38
2024-01-26T15:01:30.596Z,13.13
2024-01-26T15:03:57.557Z,12.50
2024-01-26T15:06:24.146Z,12.93
2024-01-26T15:08:50.830Z,10.57
2024-01-26T15:11:17.465Z,12.07
2024-01-26T15:13:44.302Z,11.25
2024-01-26T15:16:14.664Z,12.73
2024-01-26T15:18:41.359Z,12.05
2024-01-26T15:21:08.377Z,10.48
2024-01-26T15:23:35.015Z,10.80
2024-01-26T15:26:04.140Z,12.57
2024-01-26T15:28:30.585Z,12.13
2024-01-26T15:30:57.087Z,11.27
2024-01-26T15:33:23.724Z,10.80
2024-01-26T15:35:50.360Z,11.10
2024-01-26T15:38:16.882Z,10.52
2024-01-26T15:40:43.341Z,10.60
2024-01-26T15:43:09.871Z,10.27
2024-01-26T15:45:36.325Z,9.38
2024-01-26T15:48:03.150Z,10.27
2024-01-26T15:50:29.701Z,10.18
2024-01-26T15:52:56.192Z,9.07
2024-01-26T15:55:22.697Z,11.68
2024-01-26T15:57:49.195Z,10.93
2024-01-26T16:00:16.521Z,9.93
2024-01-26T16:02:43.209Z,10.52
2024-01-26T16:05:11.599Z,9.35
2024-01-26T16:07:38.177Z,10.27
2024-01-26T16:10:05.105Z,9.43
2024-01-26T16:12:32.869Z,10.43
2024-01-26T16:15:00.602Z,9.15
2024-01-26T16:17:27.172Z,7.72
2024-01-26T16:19:53.751Z,9.95
2024-01-26T16:22:20.325Z,8.45
2024-01-26T16:24:46.817Z,8.23
2024-01-26T16:27:13.426Z,8.80
2024-01-26T16:29:40.018Z,9.35
2024-01-26T16:32:06.869Z,8.40
2024-01-26T16:34:33.441Z,9.48
2024-01-26T16:37:00.026Z,7.38
2024-01-26T16:39:30.157Z,9.07
2024-01-26T16:41:58.947Z,7.22
2024-01-26T16:44:25.506Z,6.63
2024-01-26T16:46:52.039Z,8.13
2024-01-26T16:49:18.983Z,8.27
2024-01-26T16:51:45.526Z,8.32
2024-01-26T16:54:12.042Z,8.93
2024-01-26T16:56:38.595Z,7.65
2024-01-26T16:59:05.128Z,7.43
2024-01-26T17:01:34.443Z,6.93
2024-01-26T17:04:01.630Z,7.70
2024-01-26T17:06:28.471Z,10.30
2024-01-26T17:08:55.088Z,9.63
2024-01-26T17:11:21.703Z,6.47
2024-01-26T17:13:48.186Z,8.27
2024-01-26T17:16:14.647Z,6.22
2024-01-26T17:18:41.258Z,7.03
2024-01-26T17:21:07.935Z,7.88
2024-01-26T17:23:34.925Z,5.57
2024-01-26T17:26:01.660Z,7.22
2024-01-26T17:28:28.130Z,6.97
2024-01-26T17:30:54.609Z,8.57
2024-01-26T17:33:21.608Z,7.88
2024-01-26T17:35:48.248Z,5.95
2024-01-26T17:38:14.828Z,8.93
2024-01-26T17:40:41.448Z,11.82
2024-01-26T17:43:07.910Z,13.38
2024-01-26T17:45:34.390Z,17.90
2024-01-26T17:48:01.045Z,18.55
2024-01-26T17:50:27.612Z,18.33
2024-01-26T17:52:54.062Z,28.58
2024-01-26T17:55:20.652Z,30.08
2024-01-26T17:57:47.131Z,33.35
2024-01-26T18:00:14.254Z,32.15
2024-01-26T18:02:40.863Z,33.75
2024-01-26T18:05:07.841Z,41.53
2024-01-26T18:07:34.443Z,39.75
2024-01-26T18:10:01.004Z,39.83
2024-01-26T18:12:27.549Z,39.30
2024-01-26T18:14:54.131Z,40.95
2024-01-26T18:17:20.689Z,38.78
2024-01-26T18:19:47.346Z,34.22
2024-01-26T18:22:13.963Z,33.70
2024-01-26T18:24:40.510Z,35.13
2024-01-26T18:27:07.132Z,33.45
2024-01-26T18:29:33.642Z,33.72
2024-01-26T18:32:00.134Z,32.30
2024-01-26T18:34:26.878Z,30.60
2024-01-26T18:36:53.498Z,31.30
2024-01-26T18:39:20.595Z,27.55
2024-01-26T18:41:47.210Z,28.63
2024-01-26T18:44:14.501Z,25.35
2024-01-26T18:46:41.037Z,23.85
2024-01-26T18:49:07.649Z,26.05
2024-01-26T18:51:34.242Z,22.58
2024-01-26T18:54:00.941Z,22.92
2024-01-26T18:56:27.611Z,17.73
2024-01-26T18:58:54.279Z,20.20
2024-01-26T19:01:21.639Z,22.83
2024-01-26T19:03:48.550Z,24.55
2024-01-26T19:06:15.562Z,19.73
2024-01-26T19:08:42.666Z,21.15
2024-01-26T19:11:09.306Z,19.67
2024-01-26T19:13:36.241Z,22.02
2024-01-26T19:16:03.015Z,19.80
2024-01-26T19:18:30.061Z,18.98
2024-01-26T19:20:57.210Z,19.13
2024-01-26T19:23:23.976Z,17.58
2024-01-26T19:25:50.730Z,19.65
2024-01-26T19:28:17.424Z,16.42
2024-01-26T19:30:43.931Z,15.25
2024-01-26T19:33:10.610Z,14.98
2024-01-26T19:35:37.333Z,17.35
2024-01-26T19:38:03.974Z,13.63
2024-01-26T19:40:30.525Z,14.20
2024-01-26T19:42:57.174Z,12.68
2024-01-26T19:45:23.837Z,11.93
2024-01-26T19:47:50.818Z,12.30
2024-01-26T19:50:17.648Z,12.10
2024-01-26T19:52:44.244Z,14.13
2024-01-26T19:55:11.534Z,11.25
2024-01-26T19:57:41.312Z,10.75
2024-01-26T20:00:09.127Z,10.85
2024-01-26T20:02:38.496Z,9.80
2024-01-26T20:05:08.366Z,9.65
2024-01-26T20:07:35.321Z,9.30
2024-01-26T20:10:01.787Z,10.73
2024-01-26T20:12:28.542Z,11.35
2024-01-26T20:14:55.293Z,9.60
2024-01-26T20:17:25.939Z,9.70
2024-01-26T20:19:52.705Z,8.52
2024-01-26T20:22:19.354Z,9.82
2024-01-26T20:24:46.184Z,10.15
2024-01-26T20:27:12.804Z,9.32
2024-01-26T20:29:39.886Z,8.27
2024-01-26T20:32:06.856Z,9.43
2024-01-26T20:34:33.896Z,8.13
2024-01-26T20:37:00.489Z,7.97
2024-01-26T20:39:27.174Z,6.18
2024-01-26T20:41:53.784Z,6.85
2024-01-26T20:44:20.496Z,9.95
2024-01-26T20:46:47.411Z,8.38
2024-01-26T20:49:14.797Z,7.38
2024-01-26T20:51:41.454Z,7.10
2024-01-26T20:54:08.146Z,7.50
2024-01-26T20:56:35.066Z,6.90
2024-01-26T20:59:04.983Z,6.55
2024-01-26T21:01:34.929Z,5.85
2024-01-26T21:04:01.873Z,5.80
2024-01-26T21:06:28.712Z,7.13
2024-01-26T21:08:55.514Z,6.55
2024-01-26T21:11:22.020Z,8.00
2024-01-26T21:13:48.593Z,8.48
2024-01-26T21:16:15.123Z,7.03
2024-01-26T21:18:41.717Z,7.18
2024-01-26T21:21:08.316Z,6.15
2024-01-26T21:23:34.926Z,8.50
2024-01-26T21:26:01.382Z,7.13
2024-01-26T21:28:28.031Z,9.30
2024-01-26T21:30:54.527Z,7.57
2024-01-26T21:33:21.158Z,6.35
2024-01-26T21:35:48.144Z,7.95
2024-01-26T21:38:14.822Z,6.10
2024-01-26T21:40:41.486Z,7.22
2024-01-26T21:43:08.128Z,6.47
2024-01-26T21:45:35.395Z,6.10
2024-01-26T21:48:02.043Z,6.53
2024-01-26T21:50:29.031Z,6.47
2024-01-26T21:52:55.635Z,5.82
2024-01-26T21:55:22.212Z,6.22
2024-01-26T21:57:48.788Z,6.65
2024-01-26T22:00:15.733Z,6.05
2024-01-26T22:02:42.330Z,4.10
2024-01-26T22:05:09.035Z,4.63
2024-01-26T22:07:35.622Z,4.13
2024-01-26T22:10:02.182Z,4.50
2024-01-26T22:12:28.940Z,5.07
2024-01-26T22:14:55.607Z,3.80
2024-01-26T22:17:22.098Z,3.40
2024-01-26T22:19:48.733Z,4.57
2024-01-26T22:22:15.333Z,3.92
2024-01-26T22:24:41.853Z,4.07
2024-01-26T22:27:08.493Z,4.43
2024-01-26T22:29:35.022Z,5.65
2024-01-26T22:32:01.513Z,4.57
2024-01-26T22:34:28.120Z,3.67
2024-01-26T22:36:54.724Z,6.72
2024-01-26T22:39:21.544Z,5.00
2024-01-26T22:41:48.229Z,3.72
2024-01-26T22:44:14.729Z,4.07
2024-01-26T22:46:41.578Z,4.20
2024-01-26T22:49:08.330Z,3.95
2024-01-26T22:51:34.960Z,4.78
2024-01-26T22:54:01.534Z,3.10
2024-01-26T22:56:28.075Z,3.85
2024-01-26T22:58:54.536Z,4.25
2024-01-26T23:01:21.147Z,3.30
2024-01-26T23:03:48.024Z,5.20
2024-01-26T23:06:21.385Z,3.58
2024-01-26T23:08:49.206Z,3.47
2024-01-26T23:11:15.723Z,4.43
2024-01-26T23:13:42.226Z,3.30
2024-01-26T23:16:08.771Z,3.85
2024-01-26T23:18:35.373Z,3.25
2024-01-26T23:21:02.120Z,4.03
2024-01-26T23:23:28.799Z,3.15
2024-01-26T23:25:55.268Z,4.00
2024-01-26T23:28:21.761Z,3.88
2024-01-26T23:30:48.298Z,5.78
2024-01-26T23:33:14.881Z,4.53
2024-01-26T23:35:41.482Z,3.75
2024-01-26T23:38:08.493Z,4.68
2024-01-26T23:40:34.962Z,3.83
2024-01-26T23:43:01.528Z,4.05
2024-01-26T23:45:28.181Z,4.18
2024-01-26T23:47:57.761Z,4.07
2024-01-26T23:50:24.506Z,4.20
2024-01-26T23:52:51.008Z,3.78
2024-01-26T23:55:17.654Z,3.72
2024-01-26T23:57:44.215Z,4.20
